ESC weather

Delta County Airport
Escanaba, Michigan, United States

Public forecast

Using degrees Fahrenheit for public forecast. Weather courtesy of forecast.io.

METAR (pilot weather report)

Retrieved 2019/09/23 11:56 UTC (1 hour ago):

KESC 231156Z AUTO 27007KT 10SM -RA FEW060 OVC080 13/13 A2982 RMK AO2 SLP103 P0002 60008 70056 T01330128 10133 20128 53008

TAF (pilot weather forecast)

Closest forecast is Sawyer International Airport, 39.9 nm (73.9 km) NNW. Retrieved 2019/09/23 12:30 UTC (28 minutes ago):

TAF KSAW 231128Z 2312/2412 29007KT 5SM BR VCSH OVC025 FM231600 32009KT P6SM BKN030 FM231900 32009KT P6SM BKN050 FM232100 32006KT P6SM SCT080